Time;durP1;ratioP1;P1;durP2;ratioP2;P2;SDS_P1;SDS_P2;PMS_P1;PMS_P2;Temp;Humidity;BMP_temperature;BMP_pressure;BME280_temperature;BME280_humidity;BME280_pressure;Samples;Min_cycle;Max_cycle;Signal;HPM_P1;HPM_P2
2021/08/17 00:01:33;;;;;;;9.40;5.00;;;15.30;99.90;;;;;;5127599;28;20467;-82
2021/08/17 00:04:00;;;;;;;7.17;4.80;;;15.30;99.90;;;;;;5144409;28;20534;-84
2021/08/17 00:06:27;;;;;;;8.90;5.00;;;15.30;99.90;;;;;;5163640;27;20484;-84
2021/08/17 00:08:53;;;;;;;10.80;6.63;;;15.30;99.90;;;;;;5155880;28;20516;-85
2021/08/17 00:11:20;;;;;;;8.97;5.70;;;15.30;99.90;;;;;;5151906;28;20497;-80
2021/08/17 00:13:47;;;;;;;8.13;5.70;;;15.30;99.90;;;;;;5145372;27;20549;-87
2021/08/17 00:16:15;;;;;;;11.10;6.33;;;15.30;99.90;;;;;;5141844;27;20438;-85
2021/08/17 00:18:42;;;;;;;11.43;6.10;;;15.30;99.90;;;;;;5131908;28;20449;-81
2021/08/17 00:21:09;;;;;;;11.10;6.70;;;15.20;99.90;;;;;;5134747;28;20429;-85
2021/08/17 00:23:35;;;;;;;11.43;6.60;;;15.30;99.90;;;;;;5154079;28;20476;-82
2021/08/17 00:26:02;;;;;;;11.93;6.67;;;15.30;99.90;;;;;;5142448;28;20448;-82
2021/08/17 00:28:33;;;;;;;13.55;7.30;;;15.30;99.90;;;;;;4908572;27;10001105;-84
2021/08/17 00:30:59;;;;;;;11.23;7.63;;;15.30;99.90;;;;;;5119066;27;20437;-84
2021/08/17 00:33:26;;;;;;;12.30;8.10;;;15.30;99.90;;;;;;5131494;27;20489;-83
2021/08/17 00:35:54;;;;;;;12.60;8.17;;;15.30;99.90;;;;;;5126397;27;20442;-84
2021/08/17 00:38:21;;;;;;;17.97;9.40;;;15.20;99.90;;;;;;5126393;27;20917;-84
2021/08/17 00:40:49;;;;;;;13.97;8.97;;;15.20;99.90;;;;;;5126358;27;20516;-84
2021/08/17 00:43:17;;;;;;;11.47;7.40;;;15.20;99.90;;;;;;5136019;27;20456;-85
2021/08/17 00:45:44;;;;;;;19.03;10.67;;;15.20;99.90;;;;;;5136733;27;20431;-84
2021/08/17 00:48:10;;;;;;;16.97;9.40;;;15.20;99.90;;;;;;5158681;27;20441;-84
2021/08/17 00:50:37;;;;;;;17.47;10.63;;;15.10;99.90;;;;;;5158655;27;20429;-84
2021/08/17 00:53:04;;;;;;;15.37;10.20;;;15.10;99.90;;;;;;5158804;27;20520;-85
2021/08/17 00:55:34;;;;;;;17.67;10.60;;;15.10;99.90;;;;;;5158735;27;20451;-82
2021/08/17 00:58:04;;;;;;;20.40;11.70;;;15.10;99.90;;;;;;5152080;27;20445;-83
2021/08/17 01:00:31;;;;;;;15.27;10.40;;;15.10;99.90;;;;;;5158111;27;20434;-84
2021/08/17 01:03:00;;;;;;;18.60;11.57;;;15.10;99.90;;;;;;5140230;27;20435;-84
2021/08/17 01:05:30;;;;;;;17.63;11.40;;;15.10;99.90;;;;;;5140505;27;20476;-86
2021/08/17 01:08:00;;;;;;;17.70;11.17;;;15.10;99.90;;;;;;5133076;27;20508;-85
2021/08/17 01:10:27;;;;;;;18.57;11.70;;;15.10;99.90;;;;;;5144210;27;20445;-85
2021/08/17 01:12:54;;;;;;;19.13;11.87;;;15.10;99.90;;;;;;5123877;27;20445;-83
2021/08/17 01:15:21;;;;;;;21.13;12.13;;;15.10;99.90;;;;;;5124158;27;20453;-85
2021/08/17 01:17:48;;;;;;;22.10;13.20;;;15.10;99.90;;;;;;5132896;27;20437;-84
2021/08/17 01:20:17;;;;;;;18.87;12.57;;;15.00;99.90;;;;;;5142254;27;20461;-86
2021/08/17 01:22:46;;;;;;;22.53;12.67;;;15.00;99.90;;;;;;5141541;27;21006;-84
2021/08/17 01:25:14;;;;;;;21.50;13.33;;;15.00;99.90;;;;;;5121733;27;20484;-85
2021/08/17 01:27:42;;;;;;;24.47;13.33;;;15.00;99.90;;;;;;5120373;27;20464;-85
2021/08/17 01:30:11;;;;;;;22.20;14.30;;;15.00;99.90;;;;;;5133009;27;20561;-86
2021/08/17 01:32:38;;;;;;;23.87;14.10;;;15.00;99.90;;;;;;5141895;27;20441;-83
2021/08/17 01:35:05;;;;;;;21.63;14.13;;;15.00;99.90;;;;;;5132182;27;20456;-83
2021/08/17 01:37:32;;;;;;;24.30;15.17;;;15.00;99.90;;;;;;5124239;27;20452;-83
2021/08/17 01:40:05;;;;;;;23.30;14.40;;;15.00;99.90;;;;;;5146034;27;20421;-84
2021/08/17 01:42:32;;;;;;;24.03;13.93;;;15.00;99.90;;;;;;5159993;27;20448;-85
2021/08/17 01:44:59;;;;;;;23.67;13.93;;;15.00;99.90;;;;;;5154371;27;20576;-86
2021/08/17 01:47:30;;;;;;;21.87;14.93;;;15.00;99.90;;;;;;5121017;27;20482;-81
2021/08/17 01:50:00;;;;;;;23.30;15.43;;;15.10;99.90;;;;;;5132691;27;20527;-83
2021/08/17 01:52:29;;;;;;;23.43;14.77;;;15.10;99.90;;;;;;5142977;27;20423;-82
2021/08/17 01:54:56;;;;;;;23.70;14.47;;;15.10;99.90;;;;;;5129984;27;20471;-81
2021/08/17 01:57:22;;;;;;;23.93;15.30;;;15.10;99.90;;;;;;5139765;27;20449;-82
2021/08/17 01:59:50;;;;;;;24.67;15.27;;;15.10;99.90;;;;;;5124851;27;20448;-83
2021/08/17 02:02:17;;;;;;;22.77;15.07;;;15.10;99.90;;;;;;5121653;27;20437;-82
2021/08/17 02:04:44;;;;;;;26.27;15.93;;;15.10;99.90;;;;;;5118379;27;20496;-80
2021/08/17 02:07:11;;;;;;;25.10;15.70;;;15.10;99.90;;;;;;5139365;27;20452;-80
2021/08/17 02:09:37;;;;;;;24.53;16.17;;;15.10;99.90;;;;;;5121161;27;20516;-80
2021/08/17 02:12:04;;;;;;;23.47;15.60;;;15.10;99.90;;;;;;5136339;27;20539;-87
2021/08/17 02:14:31;;;;;;;26.40;15.20;;;15.10;99.90;;;;;;5142248;27;20541;-86
2021/08/17 02:16:58;;;;;;;28.73;16.23;;;15.10;99.90;;;;;;5130719;27;20449;-84
2021/08/17 02:19:25;;;;;;;25.60;15.80;;;15.10;99.90;;;;;;5130425;27;20452;-82
2021/08/17 02:21:51;;;;;;;24.33;14.97;;;15.10;99.90;;;;;;5142005;27;20440;-82
2021/08/17 02:24:18;;;;;;;26.63;17.03;;;15.10;99.90;;;;;;5128797;27;20480;-81
2021/08/17 02:26:45;;;;;;;24.27;15.90;;;15.10;99.90;;;;;;5157794;27;20425;-82
2021/08/17 02:29:11;;;;;;;26.10;17.30;;;15.20;99.90;;;;;;5140758;27;20453;-83
2021/08/17 02:31:38;;;;;;;23.27;16.63;;;15.20;99.90;;;;;;5144799;27;20453;-82
2021/08/17 02:34:05;;;;;;;24.07;16.67;;;15.20;99.90;;;;;;5162649;27;20487;-86
2021/08/17 02:36:32;;;;;;;23.90;15.23;;;15.10;99.90;;;;;;5126847;27;20449;-86
2021/08/17 02:38:58;;;;;;;29.70;18.57;;;15.10;99.90;;;;;;5140552;27;20449;-84
2021/08/17 02:41:25;;;;;;;21.50;16.23;;;15.10;99.90;;;;;;5142540;27;20448;-84
2021/08/17 02:43:52;;;;;;;23.57;15.23;;;15.10;99.90;;;;;;5139718;27;20918;-83
2021/08/17 02:46:19;;;;;;;28.60;18.17;;;15.10;99.90;;;;;;5139215;27;20819;-85
2021/08/17 02:48:46;;;;;;;25.33;16.07;;;15.10;99.90;;;;;;5134690;27;20808;-82
2021/08/17 02:51:14;;;;;;;31.10;16.37;;;15.10;99.90;;;;;;5131793;27;20451;-84
2021/08/17 02:53:41;;;;;;;28.77;16.67;;;15.00;99.90;;;;;;5133828;27;20437;-83
2021/08/17 02:56:08;;;;;;;27.33;16.70;;;15.00;99.90;;;;;;5139548;27;20445;-83
2021/08/17 02:58:34;;;;;;;24.80;15.57;;;15.00;99.90;;;;;;5140374;27;20445;-82
2021/08/17 03:01:01;;;;;;;28.63;16.60;;;15.00;99.90;;;;;;5145212;27;20433;-81
2021/08/17 03:03:28;;;;;;;28.27;15.37;;;15.00;99.90;;;;;;5148521;27;20464;-82
2021/08/17 03:05:55;;;;;;;24.10;15.37;;;15.00;99.90;;;;;;5151994;27;20477;-83
2021/08/17 03:08:22;;;;;;;20.53;15.00;;;15.00;99.90;;;;;;5142773;27;20873;-84
2021/08/17 03:10:49;;;;;;;25.80;15.13;;;15.00;99.90;;;;;;5126106;27;20437;-81
2021/08/17 03:13:16;;;;;;;26.40;16.97;;;14.90;99.90;;;;;;5120862;27;20485;-82
2021/08/17 03:15:43;;;;;;;29.13;17.07;;;14.90;99.90;;;;;;5110496;27;20444;-81
2021/08/17 03:18:10;;;;;;;26.60;16.07;;;14.90;99.90;;;;;;5114979;27;20506;-83
2021/08/17 03:20:38;;;;;;;25.77;16.43;;;15.00;99.90;;;;;;5139884;27;20472;-84
2021/08/17 03:23:06;;;;;;;24.77;15.80;;;14.90;99.90;;;;;;5112957;27;20483;-82
2021/08/17 03:25:33;;;;;;;28.60;15.80;;;14.90;99.90;;;;;;5120750;28;20479;-84
2021/08/17 03:27:59;;;;;;;24.33;15.90;;;14.90;99.90;;;;;;5134316;27;20452;-82
2021/08/17 03:30:27;;;;;;;29.47;16.10;;;14.90;99.90;;;;;;5119862;27;20838;-83
2021/08/17 03:32:54;;;;;;;26.87;17.00;;;14.90;99.90;;;;;;5140018;27;20456;-84
2021/08/17 03:35:21;;;;;;;25.10;14.90;;;14.90;99.90;;;;;;5138577;27;20464;-82
2021/08/17 03:37:48;;;;;;;25.90;16.30;;;14.90;99.90;;;;;;5131890;28;20448;-82
2021/08/17 03:40:18;;;;;;;24.73;15.80;;;14.90;99.90;;;;;;5161490;27;20456;-84
2021/08/17 03:42:45;;;;;;;28.00;16.40;;;14.90;99.90;;;;;;5131272;27;20526;-82
2021/08/17 03:45:14;;;;;;;23.57;14.70;;;14.90;99.90;;;;;;5140050;27;20498;-85
2021/08/17 03:47:41;;;;;;;26.97;15.93;;;14.90;99.90;;;;;;5137771;27;20438;-84
2021/08/17 03:50:10;;;;;;;24.50;15.97;;;14.90;99.90;;;;;;5135679;28;20445;-82
2021/08/17 03:52:37;;;;;;;23.10;15.80;;;14.90;99.90;;;;;;5146165;27;20451;-83
2021/08/17 03:55:04;;;;;;;24.90;16.40;;;14.90;99.90;;;;;;5151989;27;20445;-84
2021/08/17 03:57:31;;;;;;;24.20;14.93;;;14.90;99.90;;;;;;5143152;27;20444;-82
2021/08/17 03:59:58;;;;;;;26.50;16.07;;;14.90;99.90;;;;;;5154288;27;20489;-82
2021/08/17 04:02:25;;;;;;;27.50;15.57;;;15.30;99.90;;;;;;5131307;28;20466;-84
2021/08/17 04:04:52;;;;;;;32.23;15.63;;;15.30;99.90;;;;;;5143375;27;20472;-83
2021/08/17 04:07:18;;;;;;;23.00;16.90;;;15.30;99.90;;;;;;5142839;27;20451;-83
2021/08/17 04:09:45;;;;;;;25.17;16.17;;;15.20;99.90;;;;;;5135925;27;20510;-84
2021/08/17 04:12:12;;;;;;;29.43;17.77;;;15.10;99.90;;;;;;5138163;27;20452;-84
2021/08/17 04:14:38;;;;;;;26.77;17.13;;;15.10;99.90;;;;;;5142491;27;20851;-83
2021/08/17 04:17:05;;;;;;;29.53;18.07;;;15.40;99.90;;;;;;5139108;27;20456;-81
2021/08/17 04:19:32;;;;;;;24.93;16.43;;;15.40;99.90;;;;;;5141092;27;20523;-84
2021/08/17 04:21:59;;;;;;;30.80;17.10;;;15.30;99.90;;;;;;5145153;27;20880;-85
2021/08/17 04:24:25;;;;;;;27.80;15.23;;;15.40;99.90;;;;;;5142267;27;20485;-83
2021/08/17 04:26:52;;;;;;;27.43;16.80;;;15.50;99.90;;;;;;5123405;27;20495;-82
2021/08/17 04:29:19;;;;;;;26.60;16.80;;;15.20;99.90;;;;;;5124752;27;20516;-84
2021/08/17 04:31:45;;;;;;;26.40;16.30;;;15.20;99.90;;;;;;5124768;27;20448;-81
2021/08/17 04:34:12;;;;;;;30.60;16.00;;;15.20;99.90;;;;;;5139419;27;20483;-83
2021/08/17 04:36:39;;;;;;;26.47;16.07;;;15.10;99.90;;;;;;5140616;27;20452;-84
2021/08/17 04:39:05;;;;;;;25.63;15.20;;;15.00;99.90;;;;;;5124042;27;20449;-84
2021/08/17 04:41:32;;;;;;;24.87;15.03;;;15.00;99.90;;;;;;5124985;27;20441;-80
2021/08/17 04:43:59;;;;;;;25.83;16.30;;;15.00;99.90;;;;;;5142740;27;20981;-81
2021/08/17 04:46:26;;;;;;;27.27;16.43;;;15.10;99.90;;;;;;5115554;27;20556;-85
2021/08/17 04:48:53;;;;;;;23.90;14.47;;;15.10;99.90;;;;;;5152746;27;20448;-82
2021/08/17 04:51:20;;;;;;;21.77;14.53;;;15.10;99.90;;;;;;5124782;27;20453;-83
2021/08/17 04:53:46;;;;;;;23.40;14.77;;;15.20;99.90;;;;;;5106089;28;20462;-83
2021/08/17 04:56:13;;;;;;;21.60;15.10;;;15.20;99.90;;;;;;5123161;27;20463;-84
2021/08/17 04:58:40;;;;;;;22.40;13.33;;;15.20;99.90;;;;;;5147808;27;20436;-86
2021/08/17 05:01:07;;;;;;;22.87;15.13;;;15.10;99.90;;;;;;5159584;27;20478;-84
2021/08/17 05:03:33;;;;;;;24.37;15.60;;;15.10;99.90;;;;;;5153115;27;20454;-84
2021/08/17 05:06:00;;;;;;;21.47;14.57;;;15.10;99.90;;;;;;5158213;27;20488;-81
2021/08/17 05:08:27;;;;;;;18.77;13.40;;;15.10;99.90;;;;;;5128118;27;20445;-81
2021/08/17 05:10:53;;;;;;;20.63;13.00;;;15.10;99.90;;;;;;5142322;27;20441;-84
2021/08/17 05:13:20;;;;;;;26.00;15.03;;;15.10;99.90;;;;;;5123475;27;20456;-84
2021/08/17 05:15:47;;;;;;;21.67;13.33;;;15.10;99.90;;;;;;5132685;27;20437;-85
2021/08/17 05:18:14;;;;;;;20.80;14.60;;;15.10;99.90;;;;;;5152498;27;20417;-81
2021/08/17 05:20:41;;;;;;;20.97;13.20;;;15.20;99.90;;;;;;5129932;27;20508;-83
2021/08/17 05:23:07;;;;;;;22.60;14.77;;;15.10;99.90;;;;;;5145523;27;20479;-85
2021/08/17 05:25:34;;;;;;;22.33;14.60;;;15.20;99.90;;;;;;5120905;27;21031;-81
2021/08/17 05:28:01;;;;;;;24.83;14.37;;;15.20;99.90;;;;;;5131634;27;20465;-82
2021/08/17 05:30:28;;;;;;;22.40;14.60;;;15.20;99.90;;;;;;5137271;27;20442;-83
2021/08/17 05:32:55;;;;;;;23.33;14.30;;;15.30;99.90;;;;;;5141078;27;20906;-83
2021/08/17 05:35:22;;;;;;;22.20;14.37;;;15.40;99.90;;;;;;5140357;27;20436;-83
2021/08/17 05:37:49;;;;;;;30.13;15.37;;;15.40;99.90;;;;;;5123490;27;20445;-84
2021/08/17 05:40:16;;;;;;;24.03;14.53;;;15.40;99.90;;;;;;5120884;27;20563;-82
2021/08/17 05:42:43;;;;;;;23.43;14.43;;;15.40;99.90;;;;;;5141772;27;20460;-83
2021/08/17 05:45:11;;;;;;;21.87;14.83;;;15.40;99.90;;;;;;5141411;27;21039;-79
2021/08/17 05:47:45;;;;;;;23.67;14.20;;;15.40;99.90;;;;;;5116432;27;20438;-83
2021/08/17 05:50:14;;;;;;;26.13;15.23;;;15.40;99.90;;;;;;5114430;27;20451;-83
2021/08/17 05:52:41;;;;;;;21.30;14.20;;;15.40;99.90;;;;;;5113714;27;20452;-81
2021/08/17 05:55:08;;;;;;;25.07;13.83;;;15.40;99.90;;;;;;5140308;27;20465;-83
2021/08/17 05:57:35;;;;;;;24.57;14.23;;;15.40;99.90;;;;;;5127034;27;20476;-81
2021/08/17 06:00:12;;;;;;;23.13;14.80;;;15.50;99.90;;;;;;5136893;27;20457;-82
2021/08/17 06:02:39;;;;;;;25.27;14.33;;;15.50;99.90;;;;;;5127573;27;20449;-81
2021/08/17 06:05:07;;;;;;;22.13;14.50;;;15.50;99.90;;;;;;5138998;27;20541;-84
2021/08/17 06:07:33;;;;;;;26.50;15.23;;;15.60;99.90;;;;;;5137140;27;20454;-84
2021/08/17 06:10:00;;;;;;;26.93;16.13;;;15.70;99.90;;;;;;5135325;27;20459;-82
2021/08/17 06:12:27;;;;;;;26.20;15.23;;;15.70;99.90;;;;;;5139436;27;20449;-81
2021/08/17 06:14:53;;;;;;;22.83;14.70;;;15.70;99.90;;;;;;5110773;27;21322;-80
2021/08/17 06:17:20;;;;;;;24.63;15.73;;;15.80;99.90;;;;;;5133258;27;20460;-81
2021/08/17 06:19:47;;;;;;;25.37;15.60;;;15.90;99.90;;;;;;5139101;27;20457;-80
2021/08/17 06:22:13;;;;;;;27.20;14.60;;;16.40;99.90;;;;;;5139068;27;20452;-84
2021/08/17 06:24:40;;;;;;;27.47;15.80;;;17.10;99.90;;;;;;5115786;27;20469;-81
2021/08/17 06:27:07;;;;;;;23.17;14.50;;;17.10;99.90;;;;;;5138942;27;20453;-82
2021/08/17 06:29:48;;;;;;;24.27;15.53;;;17.10;99.90;;;;;;4784098;27;9999990;-84
2021/08/17 06:32:14;;;;;;;25.30;14.83;;;17.00;99.90;;;;;;5136679;27;20968;-83
2021/08/17 06:34:41;;;;;;;21.40;15.23;;;16.80;99.90;;;;;;5129316;27;20452;-84
2021/08/17 06:37:08;;;;;;;24.83;14.10;;;16.70;99.90;;;;;;5139918;27;20500;-84
2021/08/17 06:39:35;;;;;;;22.40;14.90;;;16.70;99.90;;;;;;5153897;27;20459;-82
2021/08/17 06:42:02;;;;;;;25.87;14.90;;;17.10;99.90;;;;;;5148114;27;20444;-83
2021/08/17 06:44:29;;;;;;;20.60;14.30;;;17.50;99.90;;;;;;5121840;27;20464;-85
2021/08/17 06:46:56;;;;;;;23.77;14.70;;;17.80;99.90;;;;;;5126879;27;20481;-82
2021/08/17 06:49:26;;;;;;;21.77;14.57;;;18.00;99.90;;;;;;5137411;27;20455;-84
2021/08/17 06:51:53;;;;;;;22.90;12.97;;;18.10;99.90;;;;;;5126658;27;20796;-84
2021/08/17 06:54:20;;;;;;;22.97;13.63;;;18.20;99.90;;;;;;5117771;27;20468;-83
2021/08/17 06:56:47;;;;;;;19.00;13.40;;;18.20;99.90;;;;;;5124654;27;20456;-82
2021/08/17 06:59:14;;;;;;;20.47;14.07;;;18.30;99.90;;;;;;5127052;27;20837;-82
2021/08/17 07:01:41;;;;;;;21.70;14.60;;;18.20;99.90;;;;;;5108340;27;20459;-84
2021/08/17 07:04:08;;;;;;;23.77;14.70;;;18.00;99.90;;;;;;5123620;27;20532;-84
2021/08/17 07:06:35;;;;;;;21.90;14.10;;;17.70;99.90;;;;;;5137010;27;20468;-86
2021/08/17 07:09:03;;;;;;;25.43;13.73;;;17.50;99.90;;;;;;5158271;27;20429;-85
2021/08/17 07:11:30;;;;;;;20.70;13.37;;;17.40;99.90;;;;;;5148786;27;20532;-86
2021/08/17 07:13:57;;;;;;;19.37;13.70;;;17.40;99.90;;;;;;5128529;27;20966;-84
2021/08/17 07:16:24;;;;;;;23.73;14.13;;;17.50;99.90;;;;;;5145727;27;20460;-83
2021/08/17 07:18:53;;;;;;;20.50;12.80;;;17.50;99.90;;;;;;5121680;27;20432;-83
2021/08/17 07:21:20;;;;;;;22.30;14.07;;;17.60;99.90;;;;;;5124943;28;20492;-83
2021/08/17 07:23:47;;;;;;;25.47;14.10;;;17.60;99.90;;;;;;5134219;28;20477;-86
2021/08/17 07:26:14;;;;;;;25.80;13.83;;;17.50;99.90;;;;;;5132179;27;20632;-85
2021/08/17 07:28:42;;;;;;;20.93;14.20;;;17.50;99.90;;;;;;5141733;28;20425;-83
2021/08/17 07:31:08;;;;;;;32.60;14.87;;;17.40;99.90;;;;;;5135581;27;20994;-83
2021/08/17 07:33:35;;;;;;;21.53;15.03;;;17.60;99.90;;;;;;5137791;27;20551;-85
2021/08/17 07:36:03;;;;;;;21.47;13.57;;;17.80;99.90;;;;;;5145180;28;20444;-82
2021/08/17 07:38:30;;;;;;;24.53;14.37;;;18.00;99.90;;;;;;5129262;27;20504;-85
2021/08/17 07:40:57;;;;;;;21.07;13.53;;;18.10;99.90;;;;;;5123801;27;20453;-84
2021/08/17 07:43:23;;;;;;;21.90;13.67;;;18.40;99.90;;;;;;5137803;27;20508;-85
2021/08/17 07:45:55;;;;;;;25.20;14.63;;;18.60;99.90;;;;;;5122960;27;20528;-84
2021/08/17 07:48:40;;;;;;;21.37;13.90;;;18.40;99.90;;;;;;5137465;27;20436;-81
2021/08/17 07:51:07;;;;;;;22.10;14.03;;;18.10;99.90;;;;;;5125537;27;20501;-84
2021/08/17 07:53:34;;;;;;;23.40;14.30;;;17.80;99.90;;;;;;5133641;27;20470;-84
2021/08/17 07:56:00;;;;;;;22.90;13.70;;;17.70;99.90;;;;;;5135511;27;21006;-85
2021/08/17 07:58:27;;;;;;;21.50;13.63;;;17.60;99.90;;;;;;5143696;27;20440;-83
2021/08/17 08:00:54;;;;;;;25.33;15.70;;;17.50;99.90;;;;;;5121706;28;20600;-83
2021/08/17 08:03:21;;;;;;;23.00;14.53;;;17.50;99.90;;;;;;5138885;27;21092;-82
2021/08/17 08:05:48;;;;;;;23.60;15.20;;;17.40;99.90;;;;;;5142532;27;20673;-85
2021/08/17 08:08:15;;;;;;;27.03;14.60;;;17.60;99.90;;;;;;5143674;27;20441;-83
2021/08/17 08:10:41;;;;;;;23.40;16.20;;;18.20;99.90;;;;;;5145426;27;20452;-82
2021/08/17 08:13:08;;;;;;;23.17;14.83;;;18.50;99.90;;;;;;5143299;27;20469;-84
2021/08/17 08:15:53;;;;;;;22.63;14.23;;;18.80;99.90;;;;;;5125978;27;20508;-82
2021/08/17 08:18:20;;;;;;;20.33;14.30;;;18.80;99.90;;;;;;5131949;27;20469;-83
2021/08/17 08:20:47;;;;;;;23.90;15.40;;;18.80;99.90;;;;;;5142120;27;20499;-83
2021/08/17 08:23:14;;;;;;;22.23;14.80;;;19.40;99.40;;;;;;5137443;27;20495;-81
2021/08/17 08:25:41;;;;;;;20.23;13.90;;;20.00;98.20;;;;;;5150795;27;20535;-83
2021/08/17 08:28:10;;;;;;;22.23;13.40;;;20.10;96.80;;;;;;5153313;27;20467;-81
2021/08/17 08:30:37;;;;;;;26.07;14.10;;;20.10;97.20;;;;;;5133338;27;20445;-84
2021/08/17 08:33:04;;;;;;;15.97;12.60;;;20.00;96.70;;;;;;5128642;27;20433;-82
2021/08/17 08:35:31;;;;;;;21.47;13.33;;;20.10;97.30;;;;;;5153889;27;20529;-83
2021/08/17 08:37:58;;;;;;;17.83;11.90;;;20.60;96.30;;;;;;5156404;27;20431;-84
2021/08/17 08:40:26;;;;;;;16.20;12.10;;;20.30;96.00;;;;;;5159668;27;20432;-87
2021/08/17 08:42:53;;;;;;;18.37;13.30;;;19.70;96.90;;;;;;5151432;27;20487;-87
2021/08/17 08:45:21;;;;;;;19.73;13.33;;;19.60;97.60;;;;;;5134017;27;20440;-85
2021/08/17 08:47:50;;;;;;;17.43;12.67;;;19.30;98.20;;;;;;5151645;27;20456;-83
2021/08/17 08:50:18;;;;;;;18.93;13.23;;;19.70;97.80;;;;;;5151275;27;20453;-83
2021/08/17 08:52:45;;;;;;;16.03;11.30;;;20.30;97.00;;;;;;5129048;27;20440;-83
2021/08/17 08:55:13;;;;;;;18.80;12.00;;;20.90;95.80;;;;;;5137560;27;20471;-84
2021/08/17 08:57:40;;;;;;;14.90;10.83;;;21.60;94.20;;;;;;5148153;27;20435;-84
2021/08/17 09:00:12;;;;;;;16.70;12.80;;;22.00;92.80;;;;;;5147902;27;20829;-84
2021/08/17 09:02:39;;;;;;;17.00;11.20;;;21.50;93.10;;;;;;5143361;27;20453;-85
2021/08/17 09:05:06;;;;;;;18.40;12.00;;;20.90;94.50;;;;;;5121836;27;20457;-83
2021/08/17 09:07:42;;;;;;;17.97;11.33;;;20.60;94.90;;;;;;5123992;27;20487;-85
2021/08/17 09:10:14;;;;;;;17.60;11.73;;;20.00;95.50;;;;;;5125397;27;20480;-84
2021/08/17 09:12:50;;;;;;;14.80;10.50;;;19.70;96.20;;;;;;5125736;27;20527;-84
2021/08/17 09:15:20;;;;;;;16.33;11.30;;;19.60;96.30;;;;;;5123348;27;20480;-83
2021/08/17 09:18:04;;;;;;;17.00;10.60;;;19.60;96.70;;;;;;5132063;27;20455;-83
2021/08/17 09:20:43;;;;;;;14.97;10.60;;;19.80;96.50;;;;;;5124711;27;20460;-83
2021/08/17 09:23:26;;;;;;;15.40;11.30;;;19.80;96.20;;;;;;5137745;27;20554;-82
2021/08/17 09:25:56;;;;;;;16.00;11.33;;;19.70;95.60;;;;;;5141766;27;20473;-84
2021/08/17 09:28:34;;;;;;;17.43;11.60;;;19.70;95.90;;;;;;5126301;27;20551;-84
2021/08/17 09:31:06;;;;;;;19.83;11.47;;;19.60;95.60;;;;;;5126801;27;20448;-85
2021/08/17 09:33:34;;;;;;;14.10;10.40;;;19.90;95.90;;;;;;5142664;27;20547;-85
2021/08/17 09:36:03;;;;;;;17.47;11.10;;;19.90;95.70;;;;;;5140700;27;20480;-84
2021/08/17 09:38:31;;;;;;;16.23;11.47;;;19.80;95.60;;;;;;5142747;27;20469;-84
2021/08/17 09:41:16;;;;;;;16.93;11.13;;;19.80;95.20;;;;;;5132439;27;20451;-82
2021/08/17 09:43:54;;;;;;;17.00;12.27;;;19.60;95.50;;;;;;5131833;27;20469;-82
2021/08/17 09:46:43;;;;;;;17.27;11.90;;;19.60;96.00;;;;;;5130142;27;20465;-83
2021/08/17 09:49:29;;;;;;;17.20;11.20;;;19.50;95.90;;;;;;5129043;27;20457;-86
2021/08/17 09:51:59;;;;;;;14.80;11.60;;;19.30;95.30;;;;;;5124183;27;20432;-83
2021/08/17 09:54:26;;;;;;;18.13;12.77;;;19.30;95.60;;;;;;5125001;27;20457;-84
2021/08/17 09:56:58;;;;;;;17.97;11.47;;;19.40;95.50;;;;;;5143521;27;20457;-83
2021/08/17 09:59:29;;;;;;;20.60;12.20;;;19.40;95.30;;;;;;5123652;27;20446;-84
2021/08/17 10:01:57;;;;;;;19.67;12.60;;;19.40;95.30;;;;;;5143621;27;20457;-83
2021/08/17 10:04:25;;;;;;;16.03;11.47;;;19.30;95.30;;;;;;5124219;27;20468;-83
2021/08/17 10:07:00;;;;;;;20.20;11.47;;;19.20;95.80;;;;;;5138232;27;20544;-83
2021/08/17 10:09:28;;;;;;;16.50;12.17;;;19.10;96.10;;;;;;5143523;27;20444;-83
2021/08/17 10:11:59;;;;;;;17.87;11.60;;;19.20;96.20;;;;;;5157257;27;20455;-82
2021/08/17 10:14:28;;;;;;;16.87;13.13;;;19.10;95.30;;;;;;5106452;28;20502;-84
2021/08/17 10:16:55;;;;;;;22.63;12.00;;;19.10;95.30;;;;;;5142460;27;20463;-84
2021/08/17 10:19:25;;;;;;;16.90;12.50;;;19.00;95.00;;;;;;5138541;27;20429;-83
2021/08/17 10:21:55;;;;;;;16.40;10.13;;;19.00;95.20;;;;;;5122402;27;20472;-84
2021/08/17 10:24:37;;;;;;;21.00;13.37;;;19.10;95.20;;;;;;5147085;27;20457;-85
2021/08/17 10:27:19;;;;;;;16.77;12.70;;;19.20;95.30;;;;;;5142942;27;20559;-83
2021/08/17 10:29:52;;;;;;;16.73;11.77;;;19.20;95.10;;;;;;5144635;27;20451;-82
2021/08/17 10:32:36;;;;;;;19.57;12.43;;;19.00;95.10;;;;;;5126379;27;20445;-83
2021/08/17 10:35:05;;;;;;;18.13;12.07;;;19.00;95.50;;;;;;5146830;27;21369;-83
2021/08/17 10:37:35;;;;;;;19.20;11.97;;;19.00;95.40;;;;;;5137354;27;20438;-84
2021/08/17 10:40:03;;;;;;;18.20;12.20;;;18.90;94.80;;;;;;5118473;27;20517;-84
2021/08/17 10:42:30;;;;;;;20.13;11.57;;;18.90;95.10;;;;;;5124982;27;20437;-85
2021/08/17 10:45:37;;;;;;;14.03;11.20;;;18.90;94.70;;;;;;5116416;27;20448;-84
2021/08/17 10:48:08;;;;;;;15.60;10.63;;;18.90;94.80;;;;;;5734417;22;20450;-83
2021/08/17 10:50:34;;;;;;;13.73;10.27;;;18.90;94.70;;;;;;5025482;28;20461;-82
2021/08/17 10:53:40;;;;;;;19.07;11.53;;;18.90;94.80;;;;;;5033219;28;20513;-83
2021/08/17 10:56:19;;;;;;;17.43;11.40;;;19.00;94.80;;;;;;5029639;28;20476;-83
2021/08/17 10:58:49;;;;;;;17.10;11.93;;;18.90;94.70;;;;;;5027745;28;20509;-83
2021/08/17 11:01:39;;;;;;;19.63;12.90;;;18.90;95.10;;;;;;5026229;28;20948;-84
2021/08/17 11:04:17;;;;;;;17.80;12.50;;;18.90;95.00;;;;;;5003367;28;20481;-82
2021/08/17 11:06:52;;;;;;;14.73;11.37;;;18.90;95.10;;;;;;5031970;28;20473;-84
2021/08/17 11:09:30;;;;;;;16.87;12.00;;;19.00;94.90;;;;;;5040487;28;20536;-83
2021/08/17 11:12:12;;;;;;;14.07;11.57;;;18.90;95.00;;;;;;5038719;28;21179;-82
2021/08/17 11:14:42;;;;;;;16.30;10.83;;;19.00;95.00;;;;;;5019472;28;20569;-83
2021/08/17 11:17:14;;;;;;;15.07;11.37;;;19.00;94.80;;;;;;5007802;28;21062;-83
2021/08/17 11:19:48;;;;;;;17.47;11.73;;;19.10;94.90;;;;;;5028877;28;20469;-84
2021/08/17 11:22:24;;;;;;;15.50;10.70;;;19.60;93.90;;;;;;5011343;28;20463;-86
2021/08/17 11:24:58;;;;;;;21.67;11.37;;;19.30;94.20;;;;;;5016385;28;20464;-85
2021/08/17 11:27:33;;;;;;;14.83;10.27;;;19.20;94.60;;;;;;5014983;28;20498;-82
2021/08/17 11:30:07;;;;;;;15.73;11.60;;;19.20;94.80;;;;;;5011945;28;20501;-82
2021/08/17 11:32:39;;;;;;;15.53;10.37;;;19.20;94.50;;;;;;5016038;28;20443;-83
2021/08/17 11:35:07;;;;;;;14.23;9.60;;;19.00;94.60;;;;;;5020805;28;21037;-82
2021/08/17 11:37:37;;;;;;;13.80;10.30;;;18.80;94.60;;;;;;5012065;28;20496;-83
2021/08/17 11:40:07;;;;;;;16.33;11.20;;;18.80;94.70;;;;;;5040035;28;20470;-84
2021/08/17 11:42:36;;;;;;;16.70;10.10;;;18.80;94.60;;;;;;5017005;28;20466;-84
2021/08/17 11:45:09;;;;;;;12.90;10.13;;;18.80;94.70;;;;;;5030225;28;20461;-84
2021/08/17 11:47:37;;;;;;;15.60;9.90;;;18.70;94.70;;;;;;5022506;28;20505;-83
2021/08/17 11:50:12;;;;;;;16.40;11.13;;;18.70;94.70;;;;;;5024505;28;21188;-84
2021/08/17 11:52:39;;;;;;;12.63;8.90;;;18.60;94.60;;;;;;5024454;28;20535;-84
2021/08/17 11:55:11;;;;;;;13.33;9.23;;;18.60;94.20;;;;;;5043783;28;20454;-82
2021/08/17 11:57:42;;;;;;;12.27;9.53;;;18.50;94.20;;;;;;5029056;28;20497;-85
2021/08/17 12:00:18;;;;;;;11.00;8.87;;;18.50;94.40;;;;;;5014217;28;20442;-86
2021/08/17 12:02:49;;;;;;;11.37;9.00;;;18.50;94.20;;;;;;5019822;28;20461;-85
2021/08/17 12:05:21;;;;;;;10.30;9.17;;;18.50;94.30;;;;;;5026696;28;20466;-84
2021/08/17 12:07:50;;;;;;;13.77;9.80;;;18.50;94.30;;;;;;5024629;28;20538;-84
2021/08/17 12:10:21;;;;;;;11.27;8.00;;;18.60;94.30;;;;;;5032906;28;20503;-84
2021/08/17 12:12:56;;;;;;;13.90;8.90;;;18.60;94.10;;;;;;5012903;28;20470;-84
2021/08/17 12:15:34;;;;;;;14.57;8.83;;;18.60;94.10;;;;;;5024993;28;21056;-84
2021/08/17 12:18:15;;;;;;;12.83;9.43;;;18.50;93.90;;;;;;5033509;28;20445;-83
2021/08/17 12:20:48;;;;;;;13.57;8.80;;;18.50;93.90;;;;;;5035164;28;20470;-85
2021/08/17 12:23:30;;;;;;;10.70;8.67;;;18.50;93.80;;;;;;5019522;28;20529;-82
2021/08/17 12:26:15;;;;;;;12.40;8.27;;;18.50;93.90;;;;;;5045631;28;20508;-83
2021/08/17 12:28:45;;;;;;;12.30;8.07;;;18.50;93.80;;;;;;5039443;28;21163;-84
2021/08/17 12:31:18;;;;;;;11.97;8.33;;;18.50;93.80;;;;;;4329996;28;10000699;-82
2021/08/17 12:34:05;;;;;;;10.20;8.03;;;18.50;93.90;;;;;;5039872;28;20311;-85
2021/08/17 12:36:40;;;;;;;10.67;8.23;;;18.50;93.70;;;;;;5034880;28;20469;-84
2021/08/17 12:39:08;;;;;;;11.23;7.40;;;18.60;93.60;;;;;;5020246;28;20433;-84